Time;durP1;ratioP1;P1;durP2;ratioP2;P2;SDS_P1;SDS_P2;PMS_P1;PMS_P2;Temp;Humidity;BMP_temperature;BMP_pressure;BME280_temperature;BME280_humidity;BME280_pressure;Samples;Min_cycle;Max_cycle;Signal;HPM_P1;HPM_P2
2023/07/20 00:00:30;;;;;;;11.70;3.83;;;21.80;91.40;;;;;;5035273;28;20025;-74
2023/07/20 00:03:12;;;;;;;8.05;3.20;;;21.80;91.50;;;;;;5034718;28;20025;-73
2023/07/20 00:05:38;;;;;;;8.75;3.67;;;21.70;91.60;;;;;;5035119;28;20026;-74
2023/07/20 00:08:03;;;;;;;19.73;3.83;;;21.70;91.70;;;;;;5035250;28;20021;-74
2023/07/20 00:10:29;;;;;;;7.00;3.33;;;21.70;91.80;;;;;;5017383;28;20040;-74
2023/07/20 00:12:54;;;;;;;10.40;3.05;;;21.70;91.90;;;;;;5034685;28;20028;-73
2023/07/20 00:15:20;;;;;;;9.65;3.25;;;21.70;92.00;;;;;;5035090;28;20117;-74
2023/07/20 00:17:46;;;;;;;9.40;3.58;;;21.60;92.00;;;;;;5035023;28;20061;-73
2023/07/20 00:20:11;;;;;;;9.88;3.97;;;21.60;92.30;;;;;;5035041;28;20071;-73
2023/07/20 00:22:37;;;;;;;10.73;3.38;;;21.60;91.90;;;;;;5034874;28;20021;-74
2023/07/20 00:25:03;;;;;;;9.32;3.15;;;21.60;92.10;;;;;;5034911;28;20041;-73
2023/07/20 00:27:28;;;;;;;7.95;3.25;;;21.50;92.10;;;;;;5034468;28;20053;-74
2023/07/20 00:29:54;;;;;;;10.25;3.42;;;21.50;92.30;;;;;;5034971;28;20049;-74
2023/07/20 00:32:20;;;;;;;9.00;3.10;;;21.50;92.30;;;;;;5034654;28;20593;-74
2023/07/20 00:34:45;;;;;;;7.45;3.10;;;21.50;92.40;;;;;;5035007;28;20535;-74
2023/07/20 00:37:11;;;;;;;12.38;3.95;;;21.50;92.60;;;;;;5034384;28;20018;-74
2023/07/20 00:39:36;;;;;;;10.85;3.35;;;21.50;92.40;;;;;;5034869;28;20048;-74
2023/07/20 00:42:02;;;;;;;10.75;3.63;;;21.50;92.50;;;;;;5034113;28;20114;-73
2023/07/20 00:44:28;;;;;;;8.93;3.03;;;21.40;92.60;;;;;;5034372;28;20033;-73
2023/07/20 00:46:53;;;;;;;7.60;3.17;;;21.40;92.60;;;;;;5016780;28;20156;-74
2023/07/20 00:49:21;;;;;;;8.93;3.17;;;21.40;92.70;;;;;;5034567;28;20493;-75
2023/07/20 00:51:48;;;;;;;8.23;3.13;;;21.30;92.70;;;;;;5034101;28;20039;-74
2023/07/20 00:54:15;;;;;;;8.70;3.40;;;21.30;92.80;;;;;;5034284;28;20100;-74
2023/07/20 00:56:43;;;;;;;10.85;4.03;;;21.30;92.80;;;;;;5034048;28;20025;-73
2023/07/20 00:59:10;;;;;;;8.68;3.22;;;21.20;93.20;;;;;;5034118;28;20030;-74
2023/07/20 01:01:35;;;;;;;9.35;3.53;;;21.20;93.00;;;;;;5034201;28;20479;-74
2023/07/20 01:04:01;;;;;;;8.63;3.53;;;21.20;93.10;;;;;;5034114;28;20029;-74
2023/07/20 01:06:48;;;;;;;9.32;3.50;;;21.20;93.20;;;;;;5034126;28;20025;-74
2023/07/20 01:09:25;;;;;;;6.78;3.33;;;21.10;93.30;;;;;;5034059;28;20486;-73
2023/07/20 01:12:00;;;;;;;8.50;3.38;;;21.10;93.30;;;;;;5033745;28;20033;-73
2023/07/20 01:14:25;;;;;;;9.13;3.95;;;21.10;93.40;;;;;;5032841;28;20025;-74
2023/07/20 01:16:54;;;;;;;10.70;4.18;;;21.10;93.40;;;;;;5033948;28;20074;-74
2023/07/20 01:19:20;;;;;;;7.22;3.42;;;21.00;93.40;;;;;;5034011;28;20045;-74
2023/07/20 01:21:55;;;;;;;6.97;3.63;;;21.10;93.50;;;;;;5033827;28;20136;-75
2023/07/20 01:24:39;;;;;;;9.23;3.60;;;21.10;93.90;;;;;;5033659;28;20030;-73
2023/07/20 01:27:22;;;;;;;8.65;3.65;;;21.00;93.70;;;;;;5033435;28;20061;-74
2023/07/20 01:30:15;;;;;;;8.00;4.30;;;20.90;93.70;;;;;;5033831;28;20025;-75
2023/07/20 01:32:43;;;;;;;8.25;4.43;;;20.90;93.80;;;;;;5033637;28;20021;-74
2023/07/20 01:35:10;;;;;;;8.13;3.85;;;20.90;93.80;;;;;;5033679;28;20466;-74
2023/07/20 01:37:37;;;;;;;9.32;4.35;;;20.80;93.90;;;;;;5033391;28;20025;-74
2023/07/20 01:40:04;;;;;;;7.55;3.88;;;20.90;93.90;;;;;;5033410;28;20053;-74
2023/07/20 01:42:30;;;;;;;7.15;3.80;;;20.80;94.00;;;;;;5033198;28;20420;-74
2023/07/20 01:44:55;;;;;;;7.38;3.70;;;20.80;94.30;;;;;;5033512;28;20037;-74
2023/07/20 01:47:21;;;;;;;7.40;4.30;;;20.80;94.10;;;;;;5033376;28;20375;-74
2023/07/20 01:49:46;;;;;;;8.75;4.40;;;20.80;94.20;;;;;;5033425;28;20032;-74
2023/07/20 01:52:12;;;;;;;9.98;4.53;;;20.70;94.20;;;;;;5033170;28;20029;-74
2023/07/20 01:54:38;;;;;;;7.80;4.13;;;20.70;94.30;;;;;;5033162;28;20028;-74
2023/07/20 01:57:04;;;;;;;8.73;4.07;;;20.70;94.40;;;;;;5033255;28;20475;-74
2023/07/20 01:59:29;;;;;;;9.80;4.18;;;20.60;94.30;;;;;;5033276;28;20539;-74
2023/07/20 02:01:55;;;;;;;7.43;4.50;;;20.70;94.30;;;;;;5033263;28;20105;-74
2023/07/20 02:04:20;;;;;;;7.50;4.10;;;20.60;94.40;;;;;;5033095;28;20037;-75
2023/07/20 02:06:46;;;;;;;10.32;4.72;;;20.70;94.40;;;;;;5033243;28;20061;-74
2023/07/20 02:09:11;;;;;;;8.23;4.30;;;20.60;94.50;;;;;;5032894;28;20026;-74
2023/07/20 02:11:37;;;;;;;7.20;4.25;;;20.60;94.50;;;;;;5033222;28;20052;-74
2023/07/20 02:14:02;;;;;;;7.25;4.10;;;20.60;94.50;;;;;;5033111;28;20026;-74
2023/07/20 02:16:28;;;;;;;9.88;4.35;;;20.50;94.50;;;;;;5033141;28;20072;-74
2023/07/20 02:18:56;;;;;;;6.53;3.70;;;20.50;94.60;;;;;;5033169;28;20025;-74
2023/07/20 02:21:22;;;;;;;6.90;4.30;;;20.50;94.60;;;;;;5032810;28;20083;-75
2023/07/20 02:23:48;;;;;;;8.02;4.22;;;20.50;94.70;;;;;;5032733;28;20021;-74
2023/07/20 02:26:14;;;;;;;7.43;4.35;;;20.50;94.80;;;;;;5036649;28;20030;-74
2023/07/20 02:28:41;;;;;;;7.97;4.07;;;20.40;94.80;;;;;;5036991;28;20104;-74
2023/07/20 02:31:06;;;;;;;6.10;4.20;;;20.40;94.90;;;;;;5037234;28;20033;-74
2023/07/20 02:33:32;;;;;;;8.98;4.18;;;20.40;94.80;;;;;;5036864;28;20025;-74
2023/07/20 02:35:58;;;;;;;7.30;4.30;;;20.40;95.10;;;;;;5037060;28;20485;-74
2023/07/20 02:38:23;;;;;;;6.95;4.32;;;20.30;95.00;;;;;;5036739;28;20026;-74
2023/07/20 02:40:49;;;;;;;8.15;4.53;;;20.30;95.10;;;;;;5036708;28;20032;-74
2023/07/20 02:43:15;;;;;;;8.45;4.88;;;20.20;95.20;;;;;;5036832;28;20037;-74
2023/07/20 02:45:44;;;;;;;6.93;4.55;;;20.30;95.20;;;;;;5036644;28;20501;-74
2023/07/20 02:48:10;;;;;;;7.07;4.50;;;20.20;95.20;;;;;;5019046;28;20026;-74
2023/07/20 02:50:36;;;;;;;7.00;4.53;;;20.20;95.30;;;;;;5036342;28;20032;-73
2023/07/20 02:53:02;;;;;;;5.93;4.53;;;20.20;95.40;;;;;;5036345;28;20021;-74
2023/07/20 02:55:27;;;;;;;8.85;5.10;;;20.20;95.40;;;;;;5036548;28;20416;-74
2023/07/20 02:57:53;;;;;;;8.40;5.22;;;20.20;95.50;;;;;;5036690;28;20065;-74
2023/07/20 03:00:23;;;;;;;9.00;5.10;;;20.20;95.50;;;;;;5036472;28;20092;-74
2023/07/20 03:02:48;;;;;;;9.45;5.22;;;20.20;95.50;;;;;;5036601;28;20025;-74
2023/07/20 03:05:16;;;;;;;7.47;4.53;;;20.20;95.50;;;;;;5036053;28;20087;-73
2023/07/20 03:07:43;;;;;;;6.13;5.05;;;20.10;95.60;;;;;;5018405;28;20022;-74
2023/07/20 03:10:09;;;;;;;8.50;5.88;;;20.20;95.60;;;;;;5036419;28;20026;-73
2023/07/20 03:12:35;;;;;;;8.05;4.80;;;20.10;95.60;;;;;;5036307;28;20037;-74
2023/07/20 03:15:02;;;;;;;7.97;5.32;;;20.10;95.70;;;;;;5018412;28;20033;-74
2023/07/20 03:17:28;;;;;;;10.27;5.72;;;20.10;95.60;;;;;;5036053;28;20093;-73
2023/07/20 03:19:53;;;;;;;6.10;5.25;;;20.10;95.80;;;;;;5036142;28;20029;-74
2023/07/20 03:22:21;;;;;;;11.18;6.60;;;20.10;95.70;;;;;;5018189;28;20035;-74
2023/07/20 03:24:47;;;;;;;9.60;5.57;;;20.10;95.70;;;;;;5043174;28;20398;-73
2023/07/20 03:27:12;;;;;;;9.73;5.88;;;20.00;95.90;;;;;;5046552;28;20009;-73
2023/07/20 03:29:38;;;;;;;7.78;5.10;;;20.00;95.90;;;;;;5035056;28;20060;-74
2023/07/20 03:32:04;;;;;;;9.30;5.85;;;20.10;96.00;;;;;;5033725;28;20060;-74
2023/07/20 03:34:29;;;;;;;8.50;6.72;;;20.00;96.10;;;;;;5035523;28;20109;-73
2023/07/20 03:36:55;;;;;;;9.05;5.68;;;20.00;96.10;;;;;;5034411;28;20017;-73
2023/07/20 03:39:22;;;;;;;7.28;5.57;;;20.00;96.20;;;;;;5035840;28;20386;-74
2023/07/20 03:41:48;;;;;;;9.07;6.50;;;19.90;96.40;;;;;;5035637;28;20026;-73
2023/07/20 03:44:13;;;;;;;8.85;6.13;;;19.90;96.40;;;;;;5035723;28;20087;-74
2023/07/20 03:46:39;;;;;;;7.40;6.53;;;19.90;96.50;;;;;;5035554;28;20205;-74
2023/07/20 03:49:05;;;;;;;8.90;5.43;;;20.00;96.50;;;;;;5035544;28;20025;-74
2023/07/20 03:51:31;;;;;;;8.30;5.72;;;19.90;96.50;;;;;;5035054;28;20033;-74
2023/07/20 03:53:57;;;;;;;5.95;5.35;;;19.90;96.60;;;;;;5035623;28;20390;-74
2023/07/20 03:56:24;;;;;;;8.38;5.07;;;19.90;96.60;;;;;;5035231;28;20029;-73
2023/07/20 03:58:49;;;;;;;9.63;6.88;;;19.90;96.70;;;;;;5035392;28;20029;-75
2023/07/20 04:01:16;;;;;;;7.13;5.38;;;20.00;96.60;;;;;;5035323;28;20027;-74
2023/07/20 04:03:42;;;;;;;8.10;6.25;;;19.90;96.60;;;;;;5035283;28;20064;-73
2023/07/20 04:06:08;;;;;;;9.13;6.05;;;19.90;96.60;;;;;;5035074;28;20034;-74
2023/07/20 04:08:35;;;;;;;7.20;5.60;;;19.90;96.70;;;;;;5035195;28;20018;-73
2023/07/20 04:11:03;;;;;;;6.95;5.65;;;19.90;96.80;;;;;;5035206;28;20036;-73
2023/07/20 04:13:34;;;;;;;7.07;5.68;;;19.90;96.70;;;;;;5035174;28;20029;-74
2023/07/20 04:16:00;;;;;;;8.35;5.75;;;19.90;96.80;;;;;;5035157;28;20509;-73
2023/07/20 04:18:25;;;;;;;7.72;5.75;;;19.90;96.80;;;;;;5035290;28;20053;-74
2023/07/20 04:20:51;;;;;;;6.03;5.03;;;19.90;96.80;;;;;;5034634;28;20029;-74
2023/07/20 04:23:17;;;;;;;6.68;5.85;;;19.90;96.80;;;;;;5035104;28;20109;-75
2023/07/20 04:25:42;;;;;;;8.65;5.53;;;19.90;96.90;;;;;;5034920;28;20471;-74
2023/07/20 04:28:11;;;;;;;6.53;5.15;;;19.90;96.90;;;;;;5034912;28;20028;-73
2023/07/20 04:30:38;;;;;;;8.55;4.97;;;19.90;97.00;;;;;;5034789;28;20471;-73
2023/07/20 04:33:04;;;;;;;6.90;6.03;;;19.90;97.20;;;;;;5034761;28;20060;-73
2023/07/20 04:35:49;;;;;;;5.88;4.70;;;19.90;96.90;;;;;;5034638;28;20076;-73
2023/07/20 04:38:17;;;;;;;5.38;4.03;;;19.80;97.10;;;;;;5034585;28;20036;-74
2023/07/20 04:40:46;;;;;;;6.45;4.85;;;19.80;97.00;;;;;;5034735;28;20025;-74
2023/07/20 04:43:12;;;;;;;5.57;4.47;;;19.80;97.30;;;;;;5034722;28;20374;-73
2023/07/20 04:45:38;;;;;;;5.28;4.72;;;19.80;97.10;;;;;;5017059;28;20094;-73
2023/07/20 04:48:06;;;;;;;5.13;4.50;;;19.80;97.10;;;;;;5033908;28;20029;-74
2023/07/20 04:50:32;;;;;;;6.10;4.43;;;19.80;97.10;;;;;;5034385;28;20018;-73
2023/07/20 04:52:57;;;;;;;8.35;5.05;;;19.80;97.00;;;;;;5034203;28;20479;-75
2023/07/20 04:55:23;;;;;;;6.05;4.90;;;19.90;97.10;;;;;;5034343;28;20486;-73
2023/07/20 04:57:48;;;;;;;6.43;5.30;;;19.80;97.10;;;;;;5034183;28;21219;-73
2023/07/20 05:00:15;;;;;;;7.05;5.20;;;19.80;97.10;;;;;;5035334;28;20076;-73
2023/07/20 05:02:40;;;;;;;6.68;4.70;;;19.80;97.10;;;;;;5053721;28;20031;-74
2023/07/20 05:05:06;;;;;;;7.22;4.28;;;19.80;97.20;;;;;;5053780;28;20033;-73
2023/07/20 05:07:32;;;;;;;6.90;4.97;;;19.80;97.20;;;;;;5053848;28;20104;-73
2023/07/20 05:09:57;;;;;;;6.10;4.20;;;19.80;97.10;;;;;;5053979;28;20036;-74
2023/07/20 05:12:23;;;;;;;5.00;4.25;;;19.80;97.20;;;;;;5053808;28;20041;-74
2023/07/20 05:14:48;;;;;;;6.30;4.57;;;19.80;97.10;;;;;;5053768;28;20104;-74
2023/07/20 05:17:14;;;;;;;6.47;4.63;;;19.80;97.30;;;;;;5053522;28;20068;-74
2023/07/20 05:19:40;;;;;;;5.95;4.30;;;19.80;97.20;;;;;;5053931;28;20036;-74
2023/07/20 05:22:05;;;;;;;5.28;3.78;;;19.80;97.30;;;;;;5053734;28;20021;-74
2023/07/20 05:24:31;;;;;;;4.68;4.03;;;19.80;97.20;;;;;;5053612;28;20039;-74
2023/07/20 05:26:58;;;;;;;5.07;4.15;;;19.80;97.30;;;;;;5053704;28;20025;-74
2023/07/20 05:29:24;;;;;;;3.95;3.42;;;19.80;97.40;;;;;;5053805;28;20066;-73
2023/07/20 05:31:49;;;;;;;5.93;4.07;;;19.80;97.40;;;;;;5053495;28;20111;-75
2023/07/20 05:34:15;;;;;;;5.10;3.45;;;19.80;97.30;;;;;;5053509;28;20159;-73
2023/07/20 05:36:40;;;;;;;5.78;3.75;;;19.80;97.30;;;;;;5053439;28;20040;-74
2023/07/20 05:39:06;;;;;;;6.78;3.92;;;19.80;97.20;;;;;;5053328;28;20393;-74
2023/07/20 05:41:32;;;;;;;4.00;3.22;;;19.80;97.30;;;;;;5053323;28;20107;-74
2023/07/20 05:43:57;;;;;;;5.35;4.13;;;19.90;97.20;;;;;;5053171;28;20044;-74
2023/07/20 05:46:24;;;;;;;8.88;3.53;;;19.80;97.30;;;;;;5053075;28;20086;-73
2023/07/20 05:48:50;;;;;;;3.47;2.85;;;19.80;97.30;;;;;;5053199;28;20494;-74
2023/07/20 05:51:15;;;;;;;5.80;3.13;;;19.80;97.30;;;;;;5053121;28;20033;-73
2023/07/20 05:53:41;;;;;;;3.88;2.72;;;19.80;97.30;;;;;;5053145;28;20049;-74
2023/07/20 05:56:10;;;;;;;5.35;2.30;;;19.80;97.40;;;;;;5053247;28;20043;-74
2023/07/20 05:58:36;;;;;;;2.70;1.85;;;19.90;97.20;;;;;;5053277;28;20051;-73
2023/07/20 06:01:05;;;;;;;4.18;2.22;;;19.90;96.90;;;;;;5052439;28;20470;-73
2023/07/20 06:03:31;;;;;;;3.58;1.65;;;19.90;97.00;;;;;;5053175;28;20043;-74
2023/07/20 06:06:04;;;;;;;3.28;1.88;;;19.90;96.90;;;;;;5034950;28;20485;-75
2023/07/20 06:08:30;;;;;;;2.67;2.00;;;19.90;96.80;;;;;;5034856;28;20040;-74
2023/07/20 06:10:56;;;;;;;2.40;1.48;;;19.90;97.00;;;;;;5052855;28;20025;-75
2023/07/20 06:13:21;;;;;;;2.85;1.70;;;19.90;97.10;;;;;;5052751;28;20029;-74
2023/07/20 06:15:47;;;;;;;2.85;2.00;;;20.00;97.60;;;;;;5052830;28;20025;-75
2023/07/20 06:18:13;;;;;;;2.47;1.50;;;20.00;97.30;;;;;;5052976;28;20059;-74
2023/07/20 06:20:38;;;;;;;6.80;1.40;;;20.10;97.00;;;;;;5052791;28;20025;-74
2023/07/20 06:23:04;;;;;;;3.13;1.58;;;20.20;96.90;;;;;;5035090;28;20021;-74
2023/07/20 06:25:30;;;;;;;3.50;1.23;;;20.20;96.80;;;;;;5052676;28;20036;-74
2023/07/20 06:27:56;;;;;;;0.82;0.60;;;20.20;96.90;;;;;;5035024;28;20462;-75
2023/07/20 06:30:22;;;;;;;2.53;1.10;;;20.30;96.40;;;;;;5052470;28;20029;-75
2023/07/20 06:32:47;;;;;;;0.93;0.43;;;20.30;96.60;;;;;;5052884;28;20470;-74
2023/07/20 06:35:14;;;;;;;2.60;0.55;;;20.30;96.30;;;;;;5052604;28;20105;-75
2023/07/20 06:37:40;;;;;;;2.13;0.40;;;20.40;96.20;;;;;;5052835;28;20035;-75
2023/07/20 06:40:08;;;;;;;2.60;0.88;;;20.40;96.00;;;;;;5052506;28;20032;-75
2023/07/20 06:42:34;;;;;;;2.30;0.73;;;20.40;96.20;;;;;;5034430;28;20029;-74
2023/07/20 06:45:00;;;;;;;2.08;1.20;;;20.40;96.10;;;;;;5052129;28;20452;-75
2023/07/20 06:47:25;;;;;;;2.92;0.80;;;20.50;95.90;;;;;;5052671;28;20032;-74
2023/07/20 06:49:51;;;;;;;1.60;0.60;;;20.50;95.80;;;;;;5052459;28;20038;-75
2023/07/20 06:52:16;;;;;;;1.35;0.65;;;20.50;95.80;;;;;;5052402;28;20504;-74
2023/07/20 06:54:42;;;;;;;0.80;0.55;;;20.50;95.90;;;;;;5052549;28;20021;-74
2023/07/20 06:57:07;;;;;;;1.60;0.60;;;20.50;96.10;;;;;;5052639;28;20374;-74
2023/07/20 06:59:33;;;;;;;1.15;0.22;;;20.60;95.60;;;;;;5052501;28;20044;-74
2023/07/20 07:01:59;;;;;;;0.22;0.00;;;20.60;95.70;;;;;;5052473;28;20033;-74
2023/07/20 07:04:24;;;;;;;1.80;0.20;;;20.60;95.40;;;;;;5052293;28;20037;-74
2023/07/20 07:06:50;;;;;;;0.85;0.20;;;20.60;95.40;;;;;;5052380;28;20029;-75
2023/07/20 07:09:15;;;;;;;1.02;0.20;;;20.60;95.30;;;;;;5052467;28;20044;-74
2023/07/20 07:11:41;;;;;;;1.27;0.20;;;20.60;95.20;;;;;;5054915;28;20056;-75
2023/07/20 07:14:07;;;;;;;1.20;0.20;;;20.70;95.00;;;;;;5055864;28;20032;-74
2023/07/20 07:16:32;;;;;;;2.17;0.30;;;20.70;94.80;;;;;;5056032;28;20037;-75
2023/07/20 07:18:58;;;;;;;1.23;0.30;;;20.80;95.10;;;;;;5055926;28;20028;-75
2023/07/20 07:21:25;;;;;;;1.70;0.43;;;20.80;95.10;;;;;;5037786;28;20021;-75
2023/07/20 07:23:53;;;;;;;1.83;0.63;;;20.80;94.90;;;;;;5055734;28;20089;-75
2023/07/20 07:26:19;;;;;;;1.25;0.28;;;20.70;94.60;;;;;;5055690;28;20024;-75
2023/07/20 07:28:44;;;;;;;1.27;0.10;;;20.70;94.60;;;;;;5055561;28;20021;-75
2023/07/20 07:31:10;;;;;;;1.52;0.20;;;20.80;94.60;;;;;;5055771;28;20041;-75
2023/07/20 07:33:36;;;;;;;1.55;0.40;;;20.80;94.70;;;;;;5055925;28;20031;-75
2023/07/20 07:36:01;;;;;;;1.58;0.32;;;20.90;94.50;;;;;;5055654;28;20021;-75
2023/07/20 07:38:27;;;;;;;1.98;0.30;;;20.90;94.10;;;;;;5055775;28;20474;-75
2023/07/20 07:40:52;;;;;;;4.20;0.40;;;21.00;94.40;;;;;;5037602;28;20037;-75
2023/07/20 07:43:18;;;;;;;0.80;0.20;;;20.90;94.10;;;;;;5055378;28;20025;-75
2023/07/20 07:45:43;;;;;;;0.40;0.20;;;20.90;94.00;;;;;;5055493;28;20071;-75
2023/07/20 07:48:11;;;;;;;0.77;0.30;;;20.80;93.60;;;;;;5055642;28;20461;-75
2023/07/20 07:50:38;;;;;;;0.93;0.20;;;20.80;93.90;;;;;;5055229;28;20060;-75
2023/07/20 07:53:03;;;;;;;0.43;0.10;;;20.90;93.70;;;;;;5055609;28;20104;-75
2023/07/20 07:55:29;;;;;;;0.57;0.10;;;21.00;93.70;;;;;;5055333;28;20096;-75
2023/07/20 07:57:55;;;;;;;2.55;0.30;;;21.00;93.00;;;;;;5055204;28;20090;-75
2023/07/20 08:00:20;;;;;;;0.98;0.13;;;21.10;93.20;;;;;;5037331;28;20100;-75
2023/07/20 08:02:47;;;;;;;0.70;0.25;;;21.20;93.00;;;;;;5037298;28;20436;-75
2023/07/20 08:05:14;;;;;;;0.32;0.00;;;21.30;93.10;;;;;;5055101;28;20426;-75
2023/07/20 08:07:39;;;;;;;0.47;0.10;;;21.30;92.40;;;;;;5037324;28;20013;-75
2023/07/20 08:10:06;;;;;;;1.33;0.35;;;21.30;92.60;;;;;;5055099;28;20381;-75
2023/07/20 08:12:32;;;;;;;2.45;0.17;;;21.40;92.60;;;;;;5036813;28;20025;-75
2023/07/20 08:14:57;;;;;;;1.35;0.00;;;21.40;92.20;;;;;;5055084;28;20044;-75
2023/07/20 08:17:23;;;;;;;2.42;0.00;;;21.30;91.10;;;;;;5054988;28;20104;-75
2023/07/20 08:19:48;;;;;;;0.70;0.30;;;21.30;91.70;;;;;;5054870;28;20466;-75
2023/07/20 08:22:14;;;;;;;1.95;0.10;;;21.40;91.50;;;;;;5054272;28;20455;-75
2023/07/20 08:24:40;;;;;;;1.13;0.08;;;21.30;91.30;;;;;;5055049;28;20025;-75
2023/07/20 08:27:06;;;;;;;1.95;0.17;;;21.30;91.10;;;;;;5054413;28;20025;-75
2023/07/20 08:29:31;;;;;;;0.73;0.10;;;21.40;91.80;;;;;;5054891;28;20025;-75
2023/07/20 08:31:57;;;;;;;1.27;0.10;;;21.50;91.40;;;;;;5036675;28;20025;-75
2023/07/20 08:34:22;;;;;;;0.38;0.10;;;21.50;91.40;;;;;;5036863;28;20033;-75
2023/07/20 08:36:48;;;;;;;0.73;0.20;;;21.60;91.40;;;;;;5036603;28;20474;-75
2023/07/20 08:39:14;;;;;;;0.98;0.10;;;21.60;91.20;;;;;;5036871;28;20367;-75
2023/07/20 08:41:42;;;;;;;2.50;0.20;;;21.60;91.00;;;;;;5054145;28;20150;-75
2023/07/20 08:44:08;;;;;;;1.08;0.10;;;21.70;91.40;;;;;;5054442;28;20074;-75
2023/07/20 08:46:35;;;;;;;0.80;0.00;;;21.70;91.00;;;;;;5054300;28;20021;-74
2023/07/20 08:49:02;;;;;;;0.85;0.00;;;21.80;90.40;;;;;;5054316;28;20071;-76
2023/07/20 08:51:30;;;;;;;1.20;0.00;;;21.80;90.70;;;;;;5054087;28;20116;-75
2023/07/20 08:53:55;;;;;;;0.82;0.10;;;21.80;90.70;;;;;;5054280;28;20090;-75
2023/07/20 08:56:23;;;;;;;0.60;0.22;;;21.80;90.80;;;;;;5054124;28;20052;-75
2023/07/20 08:58:51;;;;;;;0.50;0.13;;;21.90;90.80;;;;;;5054294;28;20096;-75
2023/07/20 09:01:18;;;;;;;0.65;0.17;;;21.90;90.00;;;;;;5054069;28;20056;-75
2023/07/20 09:03:45;;;;;;;0.57;0.00;;;21.90;90.90;;;;;;5036346;28;20020;-75
2023/07/20 09:06:11;;;;;;;0.20;0.10;;;21.90;87.20;;;;;;5054107;28;20432;-75
2023/07/20 09:08:42;;;;;;;0.82;0.13;;;21.90;88.50;;;;;;5054029;28;20017;-75
2023/07/20 09:11:11;;;;;;;0.70;0.20;;;21.90;90.00;;;;;;5053432;28;20387;-75
2023/07/20 09:13:38;;;;;;;0.30;0.20;;;22.00;87.80;;;;;;5053951;28;20017;-74
2023/07/20 09:16:04;;;;;;;1.42;0.15;;;22.00;87.20;;;;;;5053911;28;20096;-75
2023/07/20 09:18:31;;;;;;;1.80;0.15;;;22.00;87.60;;;;;;5053780;28;20033;-75
2023/07/20 09:21:05;;;;;;;3.90;0.13;;;22.10;88.20;;;;;;5053767;28;20013;-76
2023/07/20 09:23:39;;;;;;;0.57;0.20;;;22.10;88.20;;;;;;5035407;28;20025;-75
2023/07/20 09:26:12;;;;;;;0.70;0.10;;;22.20;89.30;;;;;;5053701;28;20044;-75
2023/07/20 09:28:43;;;;;;;0.70;0.30;;;22.20;89.50;;;;;;5035689;28;20021;-75
2023/07/20 09:31:20;;;;;;;0.30;0.15;;;22.20;88.00;;;;;;5053566;28;20017;-75
2023/07/20 09:33:47;;;;;;;1.92;0.10;;;22.20;88.00;;;;;;5053091;28;20017;-75
2023/07/20 09:36:13;;;;;;;0.22;0.08;;;22.30;88.80;;;;;;5053295;28;20031;-75
2023/07/20 09:38:41;;;;;;;1.20;0.22;;;22.30;88.70;;;;;;5053354;28;20029;-75
2023/07/20 09:41:08;;;;;;;0.52;0.30;;;22.40;88.20;;;;;;5035453;28;20021;-75
2023/07/20 09:43:36;;;;;;;0.90;0.22;;;22.30;87.40;;;;;;5053405;28;20378;-75
2023/07/20 09:46:02;;;;;;;1.83;0.20;;;22.30;87.50;;;;;;5035612;28;20056;-75
2023/07/20 09:48:29;;;;;;;0.38;0.20;;;22.30;88.20;;;;;;5053314;28;20462;-75
2023/07/20 09:50:56;;;;;;;1.13;0.20;;;22.40;88.80;;;;;;5053209;28;20025;-75
2023/07/20 09:53:25;;;;;;;0.57;0.20;;;22.50;89.30;;;;;;5052859;28;20100;-75
2023/07/20 09:55:51;;;;;;;0.40;0.10;;;22.50;88.90;;;;;;5053499;28;20367;-75
2023/07/20 09:58:18;;;;;;;0.60;0.10;;;22.50;88.30;;;;;;5053173;28;20144;-75
2023/07/20 10:00:50;;;;;;;0.77;0.38;;;22.60;87.90;;;;;;5053370;28;20439;-75
2023/07/20 10:03:27;;;;;;;14.35;2.42;;;22.60;87.60;;;;;;5035132;28;20366;-75
2023/07/20 10:06:00;;;;;;;3.13;0.82;;;22.60;88.70;;;;;;5053000;28;20037;-76
2023/07/20 10:08:26;;;;;;;1.52;0.30;;;22.60;89.00;;;;;;5034908;28;20527;-77
2023/07/20 10:10:52;;;;;;;1.15;0.10;;;22.60;89.50;;;;;;5052945;28;20024;-76
2023/07/20 10:13:20;;;;;;;0.30;0.10;;;22.70;89.70;;;;;;5035073;28;20429;-76
2023/07/20 10:15:57;;;;;;;0.63;0.10;;;22.60;89.90;;;;;;5053099;28;20037;-76
2023/07/20 10:18:33;;;;;;;0.30;0.00;;;22.70;90.00;;;;;;5053088;28;20550;-75
2023/07/20 10:21:01;;;;;;;0.10;0.00;;;22.70;90.00;;;;;;5053045;28;20023;-75
2023/07/20 10:23:29;;;;;;;0.30;0.20;;;22.70;90.00;;;;;;5052778;28;20022;-75
2023/07/20 10:25:55;;;;;;;1.48;0.20;;;22.70;89.60;;;;;;5035020;28;20528;-75
2023/07/20 10:28:23;;;;;;;1.27;0.20;;;22.70;89.00;;;;;;5052898;28;20478;-75
2023/07/20 10:30:49;;;;;;;1.20;0.35;;;22.80;89.00;;;;;;5053011;28;20025;-75
2023/07/20 10:33:19;;;;;;;1.20;0.32;;;22.80;89.10;;;;;;5052851;28;20130;-75
2023/07/20 10:35:51;;;;;;;1.05;0.30;;;22.80;89.40;;;;;;5052685;28;20492;-75
2023/07/20 10:38:16;;;;;;;;;;;22.80;89.60;;;;;;5035392;28;20051;-76
2023/07/20 10:40:42;;;;;;;1.05;0.40;;;22.80;89.60;;;;;;5052757;28;19905;-76
2023/07/20 10:43:09;;;;;;;1.25;0.47;;;22.80;89.60;;;;;;5052786;28;20028;-76
2023/07/20 10:45:50;;;;;;;0.60;0.40;;;22.90;89.70;;;;;;5053253;28;20105;-75
2023/07/20 10:48:25;;;;;;;1.10;1.00;;;22.90;89.70;;;;;;5056769;28;20043;-75
2023/07/20 10:51:14;;;;;;;1.25;0.90;;;22.90;88.90;;;;;;5056202;28;20328;-76
2023/07/20 10:53:40;;;;;;;1.48;0.77;;;22.90;89.30;;;;;;5056821;28;20044;-75
2023/07/20 10:56:08;;;;;;;1.50;1.27;;;22.90;89.40;;;;;;5056498;28;20028;-77
2023/07/20 10:58:33;;;;;;;1.30;1.20;;;23.00;89.00;;;;;;5056771;28;20013;-77
2023/07/20 11:01:04;;;;;;;1.45;1.35;;;23.00;89.20;;;;;;5056340;28;20029;-76
2023/07/20 11:03:34;;;;;;;1.75;1.42;;;23.00;88.90;;;;;;5056583;28;20021;-77
2023/07/20 11:06:23;;;;;;;2.33;1.38;;;23.00;88.60;;;;;;5055981;28;20046;-76
2023/07/20 11:08:49;;;;;;;0.90;0.50;;;23.10;88.80;;;;;;5056324;28;20032;-76
2023/07/20 11:11:29;;;;;;;1.42;0.70;;;23.10;89.10;;;;;;5055888;28;20386;-77
2023/07/20 11:14:03;;;;;;;1.55;1.30;;;23.10;88.60;;;;;;5056333;28;20032;-76
2023/07/20 11:16:32;;;;;;;1.50;1.40;;;23.10;88.10;;;;;;5056117;28;20079;-76
2023/07/20 11:18:59;;;;;;;1.42;1.27;;;23.10;88.20;;;;;;5056304;28;20053;-76
2023/07/20 11:21:25;;;;;;;0.93;0.88;;;23.10;88.30;;;;;;5055638;28;20032;-75
2023/07/20 11:23:52;;;;;;;2.15;1.10;;;23.10;88.60;;;;;;5056016;28;20025;-76
2023/07/20 11:26:19;;;;;;;1.52;1.42;;;23.20;88.50;;;;;;5055790;28;20435;-76
2023/07/20 11:28:49;;;;;;;1.55;1.20;;;23.20;88.40;;;;;;5055995;28;20020;-76
2023/07/20 11:31:17;;;;;;;2.15;1.05;;;23.20;88.10;;;;;;5037972;28;20017;-76
2023/07/20 11:33:43;;;;;;;0.70;0.70;;;23.30;88.40;;;;;;5055980;28;20021;-75
2023/07/20 11:36:09;;;;;;;0.50;0.40;;;23.30;88.40;;;;;;5055535;28;20482;-76
2023/07/20 11:38:34;;;;;;;3.13;0.60;;;23.30;88.40;;;;;;5056104;28;20061;-75
2023/07/20 11:41:02;;;;;;;1.23;0.40;;;23.30;88.40;;;;;;5055791;28;20082;-76
2023/07/20 11:43:27;;;;;;;2.45;0.93;;;23.30;88.40;;;;;;5055817;28;20094;-76
2023/07/20 11:45:53;;;;;;;3.58;1.00;;;23.30;88.30;;;;;;5055550;28;20041;-75
2023/07/20 11:48:19;;;;;;;0.90;0.82;;;23.30;88.30;;;;;;5055305;28;20515;-76
2023/07/20 11:50:44;;;;;;;1.20;1.10;;;23.30;88.10;;;;;;5055552;28;20393;-76
2023/07/20 11:53:11;;;;;;;1.38;1.20;;;23.40;88.00;;;;;;5055427;28;20367;-76
2023/07/20 11:55:39;;;;;;;1.65;1.00;;;23.40;87.90;;;;;;5055467;28;20078;-76
2023/07/20 11:58:06;;;;;;;1.33;0.93;;;23.40;87.60;;;;;;5036557;28;20104;-76
2023/07/20 12:00:36;;;;;;;1.40;0.95;;;23.40;87.70;;;;;;5037387;28;20435;-76
2023/07/20 12:03:06;;;;;;;1.27;1.17;;;23.40;87.50;;;;;;5055074;28;20477;-76
2023/07/20 12:05:32;;;;;;;1.13;1.02;;;23.50;87.30;;;;;;5037511;28;20033;-75
2023/07/20 12:07:58;;;;;;;1.40;1.13;;;23.50;87.30;;;;;;5055164;28;20402;-77
2023/07/20 12:10:30;;;;;;;1.20;1.10;;;23.50;87.00;;;;;;5055194;28;20112;-75
2023/07/20 12:13:05;;;;;;;1.85;1.00;;;23.50;86.70;;;;;;5055426;28;20032;-76
2023/07/20 12:15:31;;;;;;;1.95;0.85;;;23.50;86.90;;;;;;5055083;28;20032;-75
2023/07/20 12:18:00;;;;;;;1.10;0.70;;;23.50;87.20;;;;;;5054898;28;20052;-76
2023/07/20 12:20:30;;;;;;;0.90;0.90;;;23.50;87.10;;;;;;5037239;28;20039;-76
2023/07/20 12:22:59;;;;;;;0.70;0.70;;;23.50;87.00;;;;;;5055030;28;20108;-76
2023/07/20 12:25:53;;;;;;;1.58;0.90;;;23.60;87.10;;;;;;5054920;28;20039;-76
2023/07/20 12:28:19;;;;;;;2.28;0.82;;;23.60;87.00;;;;;;5036736;28;20032;-75
2023/07/20 12:30:46;;;;;;;1.33;0.70;;;23.60;86.70;;;;;;5055058;28;20025;-75
2023/07/20 12:33:15;;;;;;;0.85;0.85;;;23.70;86.80;;;;;;5054304;28;20032;-75
2023/07/20 12:35:43;;;;;;;1.20;1.00;;;23.60;86.80;;;;;;5054845;28;20083;-76
2023/07/20 12:38:08;;;;;;;2.72;1.13;;;23.70;86.70;;;;;;5054681;28;20017;-75
2023/07/20 12:40:35;;;;;;;1.58;0.80;;;23.70;86.60;;;;;;5054608;28;20025;-76
2023/07/20 12:43:00;;;;;;;1.00;0.90;;;23.70;86.60;;;;;;5036852;28;20017;-76
2023/07/20 12:45:26;;;;;;;1.52;1.20;;;23.70;86.50;;;;;;5036541;28;20040;-75